sensor_id;sensor_type;location;lat;lon;timestamp;temperature;humidity
5881;DHT22;2966;52.598;10.928;2023-01-01T00:01:24;13.70;99.90
5881;DHT22;2966;52.598;10.928;2023-01-01T00:03:52;13.80;99.90
5881;DHT22;2966;52.598;10.928;2023-01-01T00:06:19;13.70;99.90
5881;DHT22;2966;52.598;10.928;2023-01-01T00:08:46;13.80;99.90
5881;DHT22;2966;52.598;10.928;2023-01-01T00:11:13;13.70;99.90
5881;DHT22;2966;52.598;10.928;2023-01-01T00:13:40;13.80;99.90
5881;DHT22;2966;52.598;10.928;2023-01-01T00:16:10;13.70;99.90
5881;DHT22;2966;52.598;10.928;2023-01-01T00:18:39;13.70;99.90
5881;DHT22;2966;52.598;10.928;2023-01-01T00:21:08;13.70;99.90
5881;DHT22;2966;52.598;10.928;2023-01-01T00:23:35;13.70;99.90
5881;DHT22;2966;52.598;10.928;2023-01-01T00:26:08;13.80;99.90
5881;DHT22;2966;52.598;10.928;2023-01-01T00:28:35;13.80;99.90
5881;DHT22;2966;52.598;10.928;2023-01-01T00:31:05;13.90;99.90
5881;DHT22;2966;52.598;10.928;2023-01-01T00:33:32;13.90;99.90
5881;DHT22;2966;52.598;10.928;2023-01-01T00:36:06;13.90;99.90
5881;DHT22;2966;52.598;10.928;2023-01-01T00:38:33;14.00;99.90
5881;DHT22;2966;52.598;10.928;2023-01-01T00:41:00;13.90;99.90
5881;DHT22;2966;52.598;10.928;2023-01-01T00:43:27;14.00;99.90
5881;DHT22;2966;52.598;10.928;2023-01-01T00:45:53;14.00;99.90
5881;DHT22;2966;52.598;10.928;2023-01-01T00:48:20;14.00;99.90
5881;DHT22;2966;52.598;10.928;2023-01-01T00:50:47;14.00;99.90
5881;DHT22;2966;52.598;10.928;2023-01-01T00:53:15;14.00;99.90
5881;DHT22;2966;52.598;10.928;2023-01-01T00:55:42;14.10;99.90
5881;DHT22;2966;52.598;10.928;2023-01-01T00:58:10;14.00;99.90
5881;DHT22;2966;52.598;10.928;2023-01-01T01:00:37;14.00;99.90
5881;DHT22;2966;52.598;10.928;2023-01-01T01:03:04;14.00;99.90
5881;DHT22;2966;52.598;10.928;2023-01-01T01:05:31;14.00;99.90
5881;DHT22;2966;52.598;10.928;2023-01-01T01:07:59;14.10;99.90
5881;DHT22;2966;52.598;10.928;2023-01-01T01:10:27;14.10;99.90
5881;DHT22;2966;52.598;10.928;2023-01-01T01:12:54;14.10;99.90
5881;DHT22;2966;52.598;10.928;2023-01-01T01:15:21;14.10;99.90
5881;DHT22;2966;52.598;10.928;2023-01-01T01:17:47;14.00;99.90
5881;DHT22;2966;52.598;10.928;2023-01-01T01:20:14;14.10;99.90
5881;DHT22;2966;52.598;10.928;2023-01-01T01:22:41;14.20;99.90
5881;DHT22;2966;52.598;10.928;2023-01-01T01:25:08;14.20;99.90
5881;DHT22;2966;52.598;10.928;2023-01-01T01:27:36;14.20;99.90
5881;DHT22;2966;52.598;10.928;2023-01-01T01:30:06;14.20;99.90
5881;DHT22;2966;52.598;10.928;2023-01-01T01:32:36;14.20;99.90
5881;DHT22;2966;52.598;10.928;2023-01-01T01:35:03;14.20;99.90
5881;DHT22;2966;52.598;10.928;2023-01-01T01:37:30;14.30;99.90
5881;DHT22;2966;52.598;10.928;2023-01-01T01:39:57;14.20;99.90
5881;DHT22;2966;52.598;10.928;2023-01-01T01:42:23;14.30;99.90
5881;DHT22;2966;52.598;10.928;2023-01-01T01:44:57;14.30;99.90
5881;DHT22;2966;52.598;10.928;2023-01-01T01:47:35;14.20;99.90
5881;DHT22;2966;52.598;10.928;2023-01-01T01:50:08;14.30;99.90
5881;DHT22;2966;52.598;10.928;2023-01-01T01:52:37;14.20;99.90
5881;DHT22;2966;52.598;10.928;2023-01-01T01:55:08;14.30;99.90
5881;DHT22;2966;52.598;10.928;2023-01-01T01:57:39;14.30;99.90
5881;DHT22;2966;52.598;10.928;2023-01-01T02:00:09;14.20;99.90
5881;DHT22;2966;52.598;10.928;2023-01-01T02:02:38;14.20;99.90
5881;DHT22;2966;52.598;10.928;2023-01-01T02:05:06;14.10;99.90
5881;DHT22;2966;52.598;10.928;2023-01-01T02:07:34;14.10;99.90
5881;DHT22;2966;52.598;10.928;2023-01-01T02:10:02;14.00;99.90
5881;DHT22;2966;52.598;10.928;2023-01-01T02:12:29;14.10;99.90
5881;DHT22;2966;52.598;10.928;2023-01-01T02:14:56;14.10;99.90
5881;DHT22;2966;52.598;10.928;2023-01-01T02:17:30;14.10;99.90
5881;DHT22;2966;52.598;10.928;2023-01-01T02:20:10;14.20;99.90
5881;DHT22;2966;52.598;10.928;2023-01-01T02:22:55;14.10;99.90
5881;DHT22;2966;52.598;10.928;2023-01-01T02:25:27;14.00;99.90
5881;DHT22;2966;52.598;10.928;2023-01-01T02:28:04;14.00;99.90
5881;DHT22;2966;52.598;10.928;2023-01-01T02:30:35;14.10;99.90
5881;DHT22;2966;52.598;10.928;2023-01-01T02:33:06;14.20;99.90
5881;DHT22;2966;52.598;10.928;2023-01-01T02:35:39;14.10;99.90
5881;DHT22;2966;52.598;10.928;2023-01-01T02:38:10;14.10;99.90
5881;DHT22;2966;52.598;10.928;2023-01-01T02:40:40;14.10;99.90
5881;DHT22;2966;52.598;10.928;2023-01-01T02:43:08;13.90;99.90
5881;DHT22;2966;52.598;10.928;2023-01-01T02:45:36;13.90;99.90
5881;DHT22;2966;52.598;10.928;2023-01-01T02:48:04;13.90;99.90
5881;DHT22;2966;52.598;10.928;2023-01-01T02:50:32;13.90;99.90
5881;DHT22;2966;52.598;10.928;2023-01-01T02:53:07;14.00;99.90
5881;DHT22;2966;52.598;10.928;2023-01-01T02:55:46;14.00;99.90
5881;DHT22;2966;52.598;10.928;2023-01-01T02:58:18;14.20;99.90
5881;DHT22;2966;52.598;10.928;2023-01-01T03:01:12;14.40;99.90
5881;DHT22;2966;52.598;10.928;2023-01-01T03:03:45;14.80;99.90
5881;DHT22;2966;52.598;10.928;2023-01-01T03:06:16;15.20;99.90
5881;DHT22;2966;52.598;10.928;2023-01-01T03:08:53;15.30;99.90
5881;DHT22;2966;52.598;10.928;2023-01-01T03:11:22;15.30;99.90
5881;DHT22;2966;52.598;10.928;2023-01-01T03:13:53;15.20;99.90
5881;DHT22;2966;52.598;10.928;2023-01-01T03:16:27;15.00;99.90
5881;DHT22;2966;52.598;10.928;2023-01-01T03:18:59;14.90;99.90
5881;DHT22;2966;52.598;10.928;2023-01-01T03:21:40;14.60;99.90
5881;DHT22;2966;52.598;10.928;2023-01-01T03:24:12;14.40;99.90
5881;DHT22;2966;52.598;10.928;2023-01-01T03:26:42;14.10;99.90
5881;DHT22;2966;52.598;10.928;2023-01-01T03:29:12;14.00;99.90
5881;DHT22;2966;52.598;10.928;2023-01-01T03:31:42;13.90;99.90
5881;DHT22;2966;52.598;10.928;2023-01-01T03:34:14;13.80;99.90
5881;DHT22;2966;52.598;10.928;2023-01-01T03:36:43;13.80;99.90
5881;DHT22;2966;52.598;10.928;2023-01-01T03:39:14;13.80;99.90
5881;DHT22;2966;52.598;10.928;2023-01-01T03:41:46;13.80;99.90
5881;DHT22;2966;52.598;10.928;2023-01-01T03:44:19;13.80;99.90
5881;DHT22;2966;52.598;10.928;2023-01-01T03:46:49;13.60;99.90
5881;DHT22;2966;52.598;10.928;2023-01-01T03:49:16;13.50;99.90
5881;DHT22;2966;52.598;10.928;2023-01-01T03:51:59;13.60;99.90
5881;DHT22;2966;52.598;10.928;2023-01-01T03:54:36;13.60;99.90
5881;DHT22;2966;52.598;10.928;2023-01-01T03:57:08;13.70;99.90
5881;DHT22;2966;52.598;10.928;2023-01-01T03:59:40;13.70;99.90
5881;DHT22;2966;52.598;10.928;2023-01-01T04:02:11;13.70;99.90
5881;DHT22;2966;52.598;10.928;2023-01-01T04:04:42;13.50;99.90
5881;DHT22;2966;52.598;10.928;2023-01-01T04:07:09;13.50;99.90
5881;DHT22;2966;52.598;10.928;2023-01-01T04:09:37;13.50;99.90
5881;DHT22;2966;52.598;10.928;2023-01-01T04:12:06;13.40;99.90
5881;DHT22;2966;52.598;10.928;2023-01-01T04:14:34;13.50;99.90
5881;DHT22;2966;52.598;10.928;2023-01-01T04:17:02;13.50;99.90
5881;DHT22;2966;52.598;10.928;2023-01-01T04:19:31;13.40;99.90
5881;DHT22;2966;52.598;10.928;2023-01-01T04:21:58;13.50;99.90
5881;DHT22;2966;52.598;10.928;2023-01-01T04:24:25;13.30;99.90
5881;DHT22;2966;52.598;10.928;2023-01-01T04:26:54;13.30;99.90
5881;DHT22;2966;52.598;10.928;2023-01-01T04:29:21;13.20;99.90
5881;DHT22;2966;52.598;10.928;2023-01-01T04:31:51;13.30;99.90
5881;DHT22;2966;52.598;10.928;2023-01-01T04:34:18;13.20;99.90
5881;DHT22;2966;52.598;10.928;2023-01-01T04:36:46;13.30;99.90
5881;DHT22;2966;52.598;10.928;2023-01-01T04:39:13;13.20;99.90
5881;DHT22;2966;52.598;10.928;2023-01-01T04:41:39;13.20;99.90
5881;DHT22;2966;52.598;10.928;2023-01-01T04:44:06;13.20;99.90
5881;DHT22;2966;52.598;10.928;2023-01-01T04:46:33;13.10;99.90
5881;DHT22;2966;52.598;10.928;2023-01-01T04:49:00;13.10;99.90
5881;DHT22;2966;52.598;10.928;2023-01-01T04:51:26;13.10;99.90
5881;DHT22;2966;52.598;10.928;2023-01-01T04:53:54;13.20;99.90
5881;DHT22;2966;52.598;10.928;2023-01-01T04:56:21;13.20;99.90
5881;DHT22;2966;52.598;10.928;2023-01-01T04:58:48;13.10;99.90
5881;DHT22;2966;52.598;10.928;2023-01-01T05:01:17;13.00;99.90
5881;DHT22;2966;52.598;10.928;2023-01-01T05:03:45;13.00;99.90
5881;DHT22;2966;52.598;10.928;2023-01-01T05:06:12;13.10;99.90
5881;DHT22;2966;52.598;10.928;2023-01-01T05:08:40;13.20;99.90
5881;DHT22;2966;52.598;10.928;2023-01-01T05:11:10;13.20;99.90
5881;DHT22;2966;52.598;10.928;2023-01-01T05:13:39;13.20;99.90
5881;DHT22;2966;52.598;10.928;2023-01-01T05:16:08;13.10;99.90
5881;DHT22;2966;52.598;10.928;2023-01-01T05:18:35;13.10;99.90
5881;DHT22;2966;52.598;10.928;2023-01-01T05:21:04;13.20;99.90
5881;DHT22;2966;52.598;10.928;2023-01-01T05:23:31;13.30;99.90
5881;DHT22;2966;52.598;10.928;2023-01-01T05:25:58;13.20;99.90
5881;DHT22;2966;52.598;10.928;2023-01-01T05:28:26;13.30;99.90
5881;DHT22;2966;52.598;10.928;2023-01-01T05:30:53;13.40;99.90
5881;DHT22;2966;52.598;10.928;2023-01-01T05:33:20;13.30;99.90
5881;DHT22;2966;52.598;10.928;2023-01-01T05:35:52;13.40;99.90
5881;DHT22;2966;52.598;10.928;2023-01-01T05:38:19;13.40;99.90
5881;DHT22;2966;52.598;10.928;2023-01-01T05:40:45;13.40;99.90
5881;DHT22;2966;52.598;10.928;2023-01-01T05:43:12;13.50;99.90
5881;DHT22;2966;52.598;10.928;2023-01-01T05:45:40;13.30;99.90
5881;DHT22;2966;52.598;10.928;2023-01-01T05:48:07;13.30;99.90
5881;DHT22;2966;52.598;10.928;2023-01-01T05:50:34;13.40;99.90
5881;DHT22;2966;52.598;10.928;2023-01-01T05:53:00;13.20;99.90
5881;DHT22;2966;52.598;10.928;2023-01-01T05:55:27;13.30;99.90
5881;DHT22;2966;52.598;10.928;2023-01-01T05:57:55;13.40;99.90
5881;DHT22;2966;52.598;10.928;2023-01-01T06:00:22;13.30;99.90
5881;DHT22;2966;52.598;10.928;2023-01-01T06:02:53;13.30;99.90
5881;DHT22;2966;52.598;10.928;2023-01-01T06:05:20;13.40;99.90
5881;DHT22;2966;52.598;10.928;2023-01-01T06:07:47;13.40;99.90
5881;DHT22;2966;52.598;10.928;2023-01-01T06:10:14;13.50;99.90
5881;DHT22;2966;52.598;10.928;2023-01-01T06:12:40;13.40;99.90
5881;DHT22;2966;52.598;10.928;2023-01-01T06:15:08;13.50;99.90
5881;DHT22;2966;52.598;10.928;2023-01-01T06:17:34;13.60;99.90
5881;DHT22;2966;52.598;10.928;2023-01-01T06:20:04;13.60;99.90
5881;DHT22;2966;52.598;10.928;2023-01-01T06:22:31;13.60;99.90
5881;DHT22;2966;52.598;10.928;2023-01-01T06:24:58;13.70;99.90
5881;DHT22;2966;52.598;10.928;2023-01-01T06:27:24;13.70;99.90
5881;DHT22;2966;52.598;10.928;2023-01-01T06:29:51;13.60;99.90
5881;DHT22;2966;52.598;10.928;2023-01-01T06:32:18;13.50;99.90
5881;DHT22;2966;52.598;10.928;2023-01-01T06:34:44;13.50;99.90
5881;DHT22;2966;52.598;10.928;2023-01-01T06:37:13;13.40;99.90
5881;DHT22;2966;52.598;10.928;2023-01-01T06:39:39;13.40;99.90
5881;DHT22;2966;52.598;10.928;2023-01-01T06:42:06;13.40;99.90
5881;DHT22;2966;52.598;10.928;2023-01-01T06:44:33;13.40;99.90
5881;DHT22;2966;52.598;10.928;2023-01-01T06:46:59;13.40;99.90
5881;DHT22;2966;52.598;10.928;2023-01-01T06:49:26;13.20;99.90
5881;DHT22;2966;52.598;10.928;2023-01-01T06:51:53;13.20;99.90
5881;DHT22;2966;52.598;10.928;2023-01-01T06:54:21;13.20;99.90
5881;DHT22;2966;52.598;10.928;2023-01-01T06:56:48;13.20;99.90
5881;DHT22;2966;52.598;10.928;2023-01-01T06:59:15;13.10;99.90
5881;DHT22;2966;52.598;10.928;2023-01-01T07:01:42;13.10;99.90
5881;DHT22;2966;52.598;10.928;2023-01-01T07:04:10;13.00;99.90
5881;DHT22;2966;52.598;10.928;2023-01-01T07:06:38;12.90;99.90
5881;DHT22;2966;52.598;10.928;2023-01-01T07:09:06;13.00;99.90
5881;DHT22;2966;52.598;10.928;2023-01-01T07:11:34;12.90;99.90
5881;DHT22;2966;52.598;10.928;2023-01-01T07:14:02;12.90;99.90
5881;DHT22;2966;52.598;10.928;2023-01-01T07:16:29;12.80;99.90
5881;DHT22;2966;52.598;10.928;2023-01-01T07:18:58;12.80;99.90
5881;DHT22;2966;52.598;10.928;2023-01-01T07:21:28;12.80;99.90
5881;DHT22;2966;52.598;10.928;2023-01-01T07:23:56;12.80;99.90
5881;DHT22;2966;52.598;10.928;2023-01-01T07:26:23;12.70;99.90
5881;DHT22;2966;52.598;10.928;2023-01-01T07:28:51;12.80;99.90
5881;DHT22;2966;52.598;10.928;2023-01-01T07:31:18;12.80;99.90
5881;DHT22;2966;52.598;10.928;2023-01-01T07:33:45;12.80;99.90
5881;DHT22;2966;52.598;10.928;2023-01-01T07:36:15;12.70;99.90
5881;DHT22;2966;52.598;10.928;2023-01-01T07:38:42;12.70;99.90
5881;DHT22;2966;52.598;10.928;2023-01-01T07:41:09;12.70;99.90
5881;DHT22;2966;52.598;10.928;2023-01-01T07:43:35;12.70;99.90
5881;DHT22;2966;52.598;10.928;2023-01-01T07:46:08;12.70;99.90
5881;DHT22;2966;52.598;10.928;2023-01-01T07:48:35;12.90;99.90
5881;DHT22;2966;52.598;10.928;2023-01-01T07:51:02;12.90;99.90
5881;DHT22;2966;52.598;10.928;2023-01-01T07:53:29;12.80;99.90
5881;DHT22;2966;52.598;10.928;2023-01-01T07:55:59;12.80;99.90
5881;DHT22;2966;52.598;10.928;2023-01-01T07:58:26;12.90;99.90
5881;DHT22;2966;52.598;10.928;2023-01-01T08:00:53;13.00;99.90
5881;DHT22;2966;52.598;10.928;2023-01-01T08:03:21;13.00;99.90
5881;DHT22;2966;52.598;10.928;2023-01-01T08:05:48;13.10;99.90
5881;DHT22;2966;52.598;10.928;2023-01-01T08:08:14;13.00;99.90
5881;DHT22;2966;52.598;10.928;2023-01-01T08:10:41;13.00;99.90
5881;DHT22;2966;52.598;10.928;2023-01-01T08:13:08;13.00;99.90
5881;DHT22;2966;52.598;10.928;2023-01-01T08:15:35;13.00;99.90
5881;DHT22;2966;52.598;10.928;2023-01-01T08:18:04;13.10;99.90
5881;DHT22;2966;52.598;10.928;2023-01-01T08:20:32;13.20;99.90
5881;DHT22;2966;52.598;10.928;2023-01-01T08:22:59;13.30;99.90
5881;DHT22;2966;52.598;10.928;2023-01-01T08:25:26;13.20;99.90
5881;DHT22;2966;52.598;10.928;2023-01-01T08:27:53;13.30;99.90
5881;DHT22;2966;52.598;10.928;2023-01-01T08:30:20;13.40;99.90
5881;DHT22;2966;52.598;10.928;2023-01-01T08:32:46;13.40;99.90
5881;DHT22;2966;52.598;10.928;2023-01-01T08:35:13;13.40;99.90
5881;DHT22;2966;52.598;10.928;2023-01-01T08:37:41;13.50;99.90
5881;DHT22;2966;52.598;10.928;2023-01-01T08:40:10;13.40;99.90
5881;DHT22;2966;52.598;10.928;2023-01-01T08:42:37;13.40;99.90
5881;DHT22;2966;52.598;10.928;2023-01-01T08:45:05;13.50;99.90
5881;DHT22;2966;52.598;10.928;2023-01-01T08:47:32;13.40;99.90
5881;DHT22;2966;52.598;10.928;2023-01-01T08:49:59;13.50;99.90
5881;DHT22;2966;52.598;10.928;2023-01-01T08:52:25;13.50;99.90
5881;DHT22;2966;52.598;10.928;2023-01-01T08:54:53;13.50;99.90
5881;DHT22;2966;52.598;10.928;2023-01-01T08:57:20;13.50;99.90
5881;DHT22;2966;52.598;10.928;2023-01-01T08:59:47;13.50;99.90
5881;DHT22;2966;52.598;10.928;2023-01-01T09:02:14;13.60;99.90
5881;DHT22;2966;52.598;10.928;2023-01-01T09:04:40;13.60;99.90
5881;DHT22;2966;52.598;10.928;2023-01-01T09:07:07;13.60;99.90
5881;DHT22;2966;52.598;10.928;2023-01-01T09:09:34;13.50;99.90
5881;DHT22;2966;52.598;10.928;2023-01-01T09:12:03;13.50;99.90
5881;DHT22;2966;52.598;10.928;2023-01-01T09:14:31;13.40;99.90
5881;DHT22;2966;52.598;10.928;2023-01-01T09:16:59;13.50;99.90
5881;DHT22;2966;52.598;10.928;2023-01-01T09:19:27;13.40;99.90
5881;DHT22;2966;52.598;10.928;2023-01-01T09:21:53;13.40;99.90
5881;DHT22;2966;52.598;10.928;2023-01-01T09:24:20;13.40;99.90
5881;DHT22;2966;52.598;10.928;2023-01-01T09:26:47;13.40;99.90
5881;DHT22;2966;52.598;10.928;2023-01-01T09:29:15;13.40;99.90
5881;DHT22;2966;52.598;10.928;2023-01-01T09:31:45;13.50;99.90
5881;DHT22;2966;52.598;10.928;2023-01-01T09:34:15;13.50;99.90
5881;DHT22;2966;52.598;10.928;2023-01-01T09:36:42;13.40;99.90
5881;DHT22;2966;52.598;10.928;2023-01-01T09:39:10;13.40;99.90
5881;DHT22;2966;52.598;10.928;2023-01-01T09:41:49;13.50;99.90
5881;DHT22;2966;52.598;10.928;2023-01-01T09:44:28;13.50;99.90
5881;DHT22;2966;52.598;10.928;2023-01-01T09:47:00;13.50;99.90
5881;DHT22;2966;52.598;10.928;2023-01-01T09:49:31;13.60;99.90
5881;DHT22;2966;52.598;10.928;2023-01-01T09:52:00;13.60;99.90
5881;DHT22;2966;52.598;10.928;2023-01-01T09:54:32;13.70;99.90
5881;DHT22;2966;52.598;10.928;2023-01-01T09:57:03;13.70;99.90
5881;DHT22;2966;52.598;10.928;2023-01-01T09:59:32;13.80;99.90
5881;DHT22;2966;52.598;10.928;2023-01-01T10:02:05;13.80;99.90
5881;DHT22;2966;52.598;10.928;2023-01-01T10:04:48;13.90;99.90
5881;DHT22;2966;52.598;10.928;2023-01-01T10:07:27;14.00;99.90
5881;DHT22;2966;52.598;10.928;2023-01-01T10:10:02;14.00;99.90
5881;DHT22;2966;52.598;10.928;2023-01-01T10:12:36;14.00;99.90
5881;DHT22;2966;52.598;10.928;2023-01-01T10:15:14;14.10;99.90
5881;DHT22;2966;52.598;10.928;2023-01-01T10:17:44;14.00;99.90
5881;DHT22;2966;52.598;10.928;2023-01-01T10:20:19;14.00;99.90
5881;DHT22;2966;52.598;10.928;2023-01-01T10:22:49;13.90;99.90
5881;DHT22;2966;52.598;10.928;2023-01-01T10:25:18;13.90;99.90
5881;DHT22;2966;52.598;10.928;2023-01-01T10:27:50;13.90;99.90
5881;DHT22;2966;52.598;10.928;2023-01-01T10:30:21;14.00;99.90
5881;DHT22;2966;52.598;10.928;2023-01-01T10:32:53;14.00;99.90
5881;DHT22;2966;52.598;10.928;2023-01-01T10:35:21;14.00;99.90
5881;DHT22;2966;52.598;10.928;2023-01-01T10:37:56;14.10;99.90
5881;DHT22;2966;52.598;10.928;2023-01-01T10:40:25;14.10;99.90
5881;DHT22;2966;52.598;10.928;2023-01-01T10:42:53;14.10;99.90
5881;DHT22;2966;52.598;10.928;2023-01-01T10:45:28;13.90;99.90
5881;DHT22;2966;52.598;10.928;2023-01-01T10:48:15;14.00;99.90
5881;DHT22;2966;52.598;10.928;2023-01-01T10:50:45;13.90;99.90
5881;DHT22;2966;52.598;10.928;2023-01-01T10:53:26;13.90;99.90
5881;DHT22;2966;52.598;10.928;2023-01-01T10:56:05;14.10;99.90
5881;DHT22;2966;52.598;10.928;2023-01-01T10:58:39;14.00;99.90
5881;DHT22;2966;52.598;10.928;2023-01-01T11:01:10;13.90;99.90
5881;DHT22;2966;52.598;10.928;2023-01-01T11:03:39;13.90;99.90
5881;DHT22;2966;52.598;10.928;2023-01-01T11:06:20;13.90;99.90
5881;DHT22;2966;52.598;10.928;2023-01-01T11:08:55;13.80;99.90
5881;DHT22;2966;52.598;10.928;2023-01-01T11:11:26;13.70;99.90
5881;DHT22;2966;52.598;10.928;2023-01-01T11:13:56;13.60;99.90
5881;DHT22;2966;52.598;10.928;2023-01-01T11:16:25;13.60;99.90
5881;DHT22;2966;52.598;10.928;2023-01-01T11:19:00;13.60;99.90
5881;DHT22;2966;52.598;10.928;2023-01-01T11:21:28;13.60;99.90
5881;DHT22;2966;52.598;10.928;2023-01-01T11:24:16;13.50;99.90
5881;DHT22;2966;52.598;10.928;2023-01-01T11:26:47;13.20;99.90
5881;DHT22;2966;52.598;10.928;2023-01-01T11:29:24;12.70;99.90
5881;DHT22;2966;52.598;10.928;2023-01-01T11:31:53;12.40;99.90
5881;DHT22;2966;52.598;10.928;2023-01-01T11:34:33;12.20;99.90
5881;DHT22;2966;52.598;10.928;2023-01-01T11:37:10;12.00;99.90
5881;DHT22;2966;52.598;10.928;2023-01-01T11:39:41;12.00;99.90
5881;DHT22;2966;52.598;10.928;2023-01-01T11:42:15;11.90;99.90
5881;DHT22;2966;52.598;10.928;2023-01-01T11:44:45;11.90;99.90
5881;DHT22;2966;52.598;10.928;2023-01-01T11:47:21;11.90;99.90
5881;DHT22;2966;52.598;10.928;2023-01-01T11:49:53;12.00;99.90
5881;DHT22;2966;52.598;10.928;2023-01-01T11:52:32;12.00;99.90
5881;DHT22;2966;52.598;10.928;2023-01-01T11:55:12;12.10;99.90
5881;DHT22;2966;52.598;10.928;2023-01-01T11:57:57;12.00;99.90
5881;DHT22;2966;52.598;10.928;2023-01-01T12:00:29;12.00;99.90
5881;DHT22;2966;52.598;10.928;2023-01-01T12:03:02;12.00;99.90
5881;DHT22;2966;52.598;10.928;2023-01-01T12:05:41;12.00;99.90
5881;DHT22;2966;52.598;10.928;2023-01-01T12:08:11;12.00;99.90
5881;DHT22;2966;52.598;10.928;2023-01-01T12:10:47;12.00;99.90
5881;DHT22;2966;52.598;10.928;2023-01-01T12:13:18;12.00;99.90
5881;DHT22;2966;52.598;10.928;2023-01-01T12:15:51;12.00;99.90
5881;DHT22;2966;52.598;10.928;2023-01-01T12:18:24;12.00;99.90
5881;DHT22;2966;52.598;10.928;2023-01-01T12:20:56;12.00;99.90
5881;DHT22;2966;52.598;10.928;2023-01-01T12:23:24;12.00;99.90
5881;DHT22;2966;52.598;10.928;2023-01-01T12:25:57;12.00;99.90
5881;DHT22;2966;52.598;10.928;2023-01-01T12:28:32;12.00;99.90
5881;DHT22;2966;52.598;10.928;2023-01-01T12:31:08;12.10;99.90
5881;DHT22;2966;52.598;10.928;2023-01-01T12:33:50;12.10;99.90
5881;DHT22;2966;52.598;10.928;2023-01-01T12:36:27;12.10;99.90
5881;DHT22;2966;52.598;10.928;2023-01-01T12:39:45;12.20;99.90
5881;DHT22;2966;52.598;10.928;2023-01-01T12:42:20;12.20;99.90
5881;DHT22;2966;52.598;10.928;2023-01-01T12:45:11;12.10;99.90
5881;DHT22;2966;52.598;10.928;2023-01-01T12:47:50;12.10;99.90
5881;DHT22;2966;52.598;10.928;2023-01-01T12:50:28;12.10;99.90
5881;DHT22;2966;52.598;10.928;2023-01-01T12:53:06;12.10;99.90
5881;DHT22;2966;52.598;10.928;2023-01-01T12:55:53;12.20;99.90
5881;DHT22;2966;52.598;10.928;2023-01-01T12:58:28;12.10;99.90
5881;DHT22;2966;52.598;10.928;2023-01-01T13:00:58;12.10;99.90
5881;DHT22;2966;52.598;10.928;2023-01-01T13:03:28;12.10;99.90
5881;DHT22;2966;52.598;10.928;2023-01-01T13:05:58;12.10;99.90
5881;DHT22;2966;52.598;10.928;2023-01-01T13:08:26;12.00;99.90
5881;DHT22;2966;52.598;10.928;2023-01-01T13:10:55;12.10;99.90
5881;DHT22;2966;52.598;10.928;2023-01-01T13:13:22;12.00;99.90
5881;DHT22;2966;52.598;10.928;2023-01-01T13:15:51;12.00;99.90
5881;DHT22;2966;52.598;10.928;2023-01-01T13:18:28;12.00;99.90
5881;DHT22;2966;52.598;10.928;2023-01-01T13:21:19;12.00;99.90
5881;DHT22;2966;52.598;10.928;2023-01-01T13:23:51;11.90;99.90
5881;DHT22;2966;52.598;10.928;2023-01-01T13:26:37;11.80;99.90
5881;DHT22;2966;52.598;10.928;2023-01-01T13:32:09;11.70;99.90
5881;DHT22;2966;52.598;10.928;2023-01-01T13:37:46;11.80;99.90
5881;DHT22;2966;52.598;10.928;2023-01-01T13:40:49;11.80;99.90
5881;DHT22;2966;52.598;10.928;2023-01-01T13:43:25;11.70;99.90
5881;DHT22;2966;52.598;10.928;2023-01-01T13:45:57;11.70;99.90
5881;DHT22;2966;52.598;10.928;2023-01-01T13:51:50;11.70;99.90
5881;DHT22;2966;52.598;10.928;2023-01-01T13:55:00;11.70;99.90
5881;DHT22;2966;52.598;10.928;2023-01-01T13:58:05;11.70;99.90
5881;DHT22;2966;52.598;10.928;2023-01-01T14:00:40;11.70;99.90
5881;DHT22;2966;52.598;10.928;2023-01-01T14:03:12;11.70;99.90
5881;DHT22;2966;52.598;10.928;2023-01-01T14:05:43;11.70;99.90
5881;DHT22;2966;52.598;10.928;2023-01-01T14:08:26;11.70;99.90
5881;DHT22;2966;52.598;10.928;2023-01-01T14:10:55;11.70;99.90
5881;DHT22;2966;52.598;10.928;2023-01-01T14:13:22;11.70;99.90
5881;DHT22;2966;52.598;10.928;2023-01-01T14:15:53;11.70;99.90
5881;DHT22;2966;52.598;10.928;2023-01-01T14:18:24;11.70;99.90
5881;DHT22;2966;52.598;10.928;2023-01-01T14:20:54;11.60;99.90
5881;DHT22;2966;52.598;10.928;2023-01-01T14:23:28;11.60;99.90
5881;DHT22;2966;52.598;10.928;2023-01-01T14:25:59;11.50;99.90
5881;DHT22;2966;52.598;10.928;2023-01-01T14:28:29;11.40;99.90
5881;DHT22;2966;52.598;10.928;2023-01-01T14:30:57;11.40;99.90
5881;DHT22;2966;52.598;10.928;2023-01-01T14:33:27;11.30;99.90
5881;DHT22;2966;52.598;10.928;2023-01-01T14:35:55;11.20;99.90
5881;DHT22;2966;52.598;10.928;2023-01-01T14:38:24;11.10;99.90
5881;DHT22;2966;52.598;10.928;2023-01-01T14:41:07;11.00;99.90
5881;DHT22;2966;52.598;10.928;2023-01-01T14:43:37;10.90;99.90
5881;DHT22;2966;52.598;10.928;2023-01-01T14:46:13;10.80;99.90
5881;DHT22;2966;52.598;10.928;2023-01-01T14:48:42;10.70;99.90
5881;DHT22;2966;52.598;10.928;2023-01-01T14:51:13;10.60;99.90
5881;DHT22;2966;52.598;10.928;2023-01-01T14:53:41;10.60;99.90
5881;DHT22;2966;52.598;10.928;2023-01-01T14:56:20;10.50;99.90
5881;DHT22;2966;52.598;10.928;2023-01-01T14:58:48;10.50;99.90
5881;DHT22;2966;52.598;10.928;2023-01-01T15:01:16;10.40;99.90
5881;DHT22;2966;52.598;10.928;2023-01-01T15:03:54;10.40;99.90
5881;DHT22;2966;52.598;10.928;2023-01-01T15:06:22;10.40;99.90
5881;DHT22;2966;52.598;10.928;2023-01-01T15:08:52;10.30;99.90
5881;DHT22;2966;52.598;10.928;2023-01-01T15:11:21;10.20;99.90
5881;DHT22;2966;52.598;10.928;2023-01-01T15:13:55;10.10;99.90
5881;DHT22;2966;52.598;10.928;2023-01-01T15:16:22;10.10;99.90
5881;DHT22;2966;52.598;10.928;2023-01-01T15:18:49;10.00;99.90
5881;DHT22;2966;52.598;10.928;2023-01-01T15:21:24;9.90;99.90
5881;DHT22;2966;52.598;10.928;2023-01-01T15:23:59;9.90;99.90
5881;DHT22;2966;52.598;10.928;2023-01-01T15:26:36;9.80;99.90
5881;DHT22;2966;52.598;10.928;2023-01-01T15:29:07;9.80;99.90
5881;DHT22;2966;52.598;10.928;2023-01-01T15:31:38;9.70;99.90
5881;DHT22;2966;52.598;10.928;2023-01-01T15:34:10;9.70;99.90
5881;DHT22;2966;52.598;10.928;2023-01-01T15:36:40;9.70;99.90
5881;DHT22;2966;52.598;10.928;2023-01-01T15:39:09;9.70;99.90
5881;DHT22;2966;52.598;10.928;2023-01-01T15:41:43;9.60;99.90
5881;DHT22;2966;52.598;10.928;2023-01-01T15:44:19;9.50;99.90
5881;DHT22;2966;52.598;10.928;2023-01-01T15:46:48;9.50;99.90
5881;DHT22;2966;52.598;10.928;2023-01-01T15:49:24;9.50;99.90
5881;DHT22;2966;52.598;10.928;2023-01-01T15:51:52;9.50;99.90
5881;DHT22;2966;52.598;10.928;2023-01-01T15:54:19;9.50;99.90
5881;DHT22;2966;52.598;10.928;2023-01-01T15:56:47;9.50;99.90
5881;DHT22;2966;52.598;10.928;2023-01-01T15:59:26;9.50;99.90
5881;DHT22;2966;52.598;10.928;2023-01-01T16:02:11;9.50;99.90
5881;DHT22;2966;52.598;10.928;2023-01-01T16:04:39;9.60;99.90
5881;DHT22;2966;52.598;10.928;2023-01-01T16:07:14;9.60;99.90
5881;DHT22;2966;52.598;10.928;2023-01-01T16:09:41;9.60;99.90
5881;DHT22;2966;52.598;10.928;2023-01-01T16:12:09;9.60;99.90
5881;DHT22;2966;52.598;10.928;2023-01-01T16:14:36;9.60;99.90
5881;DHT22;2966;52.598;10.928;2023-01-01T16:17:03;9.60;99.90
5881;DHT22;2966;52.598;10.928;2023-01-01T16:19:30;9.60;99.90